sensor_id;sensor_type;location;lat;lon;timestamp;temperature;humidity
26621;DHT22;14253;44.840;10.444;2023-04-03T00:00:51;9.00;99.90
26621;DHT22;14253;44.840;10.444;2023-04-03T00:03:18;8.80;99.90
26621;DHT22;14253;44.840;10.444;2023-04-03T00:05:44;8.60;99.90
26621;DHT22;14253;44.840;10.444;2023-04-03T00:08:10;8.50;99.90
26621;DHT22;14253;44.840;10.444;2023-04-03T00:10:37;8.60;99.90
26621;DHT22;14253;44.840;10.444;2023-04-03T00:13:05;8.60;99.90
26621;DHT22;14253;44.840;10.444;2023-04-03T00:15:31;8.70;99.90
26621;DHT22;14253;44.840;10.444;2023-04-03T00:17:56;8.70;99.90
26621;DHT22;14253;44.840;10.444;2023-04-03T00:20:22;8.70;99.90
26621;DHT22;14253;44.840;10.444;2023-04-03T00:22:48;8.80;99.90
26621;DHT22;14253;44.840;10.444;2023-04-03T00:25:14;8.70;99.90
26621;DHT22;14253;44.840;10.444;2023-04-03T00:27:40;8.80;99.90
26621;DHT22;14253;44.840;10.444;2023-04-03T00:30:08;8.80;99.90
26621;DHT22;14253;44.840;10.444;2023-04-03T00:32:35;8.80;99.90
26621;DHT22;14253;44.840;10.444;2023-04-03T00:35:01;8.90;99.90
26621;DHT22;14253;44.840;10.444;2023-04-03T00:37:27;8.80;99.90
26621;DHT22;14253;44.840;10.444;2023-04-03T00:39:53;8.70;99.90
26621;DHT22;14253;44.840;10.444;2023-04-03T00:42:19;8.50;99.90
26621;DHT22;14253;44.840;10.444;2023-04-03T00:47:13;8.60;99.90
26621;DHT22;14253;44.840;10.444;2023-04-03T00:49:42;8.60;99.90
26621;DHT22;14253;44.840;10.444;2023-04-03T00:52:13;8.50;99.90
26621;DHT22;14253;44.840;10.444;2023-04-03T00:54:41;8.50;99.90
26621;DHT22;14253;44.840;10.444;2023-04-03T00:57:09;8.70;99.90
26621;DHT22;14253;44.840;10.444;2023-04-03T00:59:39;8.80;99.90
26621;DHT22;14253;44.840;10.444;2023-04-03T01:02:06;8.80;99.90
26621;DHT22;14253;44.840;10.444;2023-04-03T01:04:35;8.90;99.90
26621;DHT22;14253;44.840;10.444;2023-04-03T01:07:08;8.90;99.90
26621;DHT22;14253;44.840;10.444;2023-04-03T01:09:35;8.90;99.90
26621;DHT22;14253;44.840;10.444;2023-04-03T01:12:40;8.80;99.90
26621;DHT22;14253;44.840;10.444;2023-04-03T01:15:32;8.70;99.90
26621;DHT22;14253;44.840;10.444;2023-04-03T01:18:25;8.70;99.90
26621;DHT22;14253;44.840;10.444;2023-04-03T01:24:17;8.70;99.90
26621;DHT22;14253;44.840;10.444;2023-04-03T01:27:10;8.60;99.90
26621;DHT22;14253;44.840;10.444;2023-04-03T01:29:56;8.50;99.90
26621;DHT22;14253;44.840;10.444;2023-04-03T01:32:41;8.50;99.90
26621;DHT22;14253;44.840;10.444;2023-04-03T01:35:16;8.60;99.90
26621;DHT22;14253;44.840;10.444;2023-04-03T01:37:42;8.60;99.90
26621;DHT22;14253;44.840;10.444;2023-04-03T01:40:09;8.60;99.90
26621;DHT22;14253;44.840;10.444;2023-04-03T01:42:35;8.60;99.90
26621;DHT22;14253;44.840;10.444;2023-04-03T01:45:01;8.60;99.90
26621;DHT22;14253;44.840;10.444;2023-04-03T01:47:27;8.50;99.90
26621;DHT22;14253;44.840;10.444;2023-04-03T01:49:53;8.50;99.90
26621;DHT22;14253;44.840;10.444;2023-04-03T01:52:19;8.50;99.90
26621;DHT22;14253;44.840;10.444;2023-04-03T01:54:45;8.50;99.90
26621;DHT22;14253;44.840;10.444;2023-04-03T01:57:11;8.40;99.90
26621;DHT22;14253;44.840;10.444;2023-04-03T01:59:39;8.30;99.90
26621;DHT22;14253;44.840;10.444;2023-04-03T02:02:06;8.40;99.90
26621;DHT22;14253;44.840;10.444;2023-04-03T02:04:32;8.30;99.90
26621;DHT22;14253;44.840;10.444;2023-04-03T02:06:58;8.20;99.90
26621;DHT22;14253;44.840;10.444;2023-04-03T02:09:24;8.20;99.90
26621;DHT22;14253;44.840;10.444;2023-04-03T02:11:52;8.20;99.90
26621;DHT22;14253;44.840;10.444;2023-04-03T02:14:18;8.20;99.90
26621;DHT22;14253;44.840;10.444;2023-04-03T02:16:45;8.10;99.90
26621;DHT22;14253;44.840;10.444;2023-04-03T02:19:11;8.10;99.90
26621;DHT22;14253;44.840;10.444;2023-04-03T02:21:36;8.00;99.90
26621;DHT22;14253;44.840;10.444;2023-04-03T02:24:02;8.10;99.90
26621;DHT22;14253;44.840;10.444;2023-04-03T02:26:28;8.10;99.90
26621;DHT22;14253;44.840;10.444;2023-04-03T02:28:54;8.20;99.90
26621;DHT22;14253;44.840;10.444;2023-04-03T02:31:20;8.20;99.90
26621;DHT22;14253;44.840;10.444;2023-04-03T02:33:47;8.10;99.90
26621;DHT22;14253;44.840;10.444;2023-04-03T02:36:14;8.10;99.90
26621;DHT22;14253;44.840;10.444;2023-04-03T02:38:43;8.10;99.90
26621;DHT22;14253;44.840;10.444;2023-04-03T02:41:11;8.10;99.90
26621;DHT22;14253;44.840;10.444;2023-04-03T02:43:38;8.10;99.90
26621;DHT22;14253;44.840;10.444;2023-04-03T02:46:05;8.10;99.90
26621;DHT22;14253;44.840;10.444;2023-04-03T02:48:31;8.20;99.90
26621;DHT22;14253;44.840;10.444;2023-04-03T02:50:57;8.10;99.90
26621;DHT22;14253;44.840;10.444;2023-04-03T02:53:23;8.00;99.90
26621;DHT22;14253;44.840;10.444;2023-04-03T02:55:50;7.90;99.90
26621;DHT22;14253;44.840;10.444;2023-04-03T02:58:16;7.80;99.90
26621;DHT22;14253;44.840;10.444;2023-04-03T03:00:42;7.80;99.90
26621;DHT22;14253;44.840;10.444;2023-04-03T03:03:08;7.70;99.90
26621;DHT22;14253;44.840;10.444;2023-04-03T03:05:34;7.70;99.90
26621;DHT22;14253;44.840;10.444;2023-04-03T03:08:00;7.70;99.90
26621;DHT22;14253;44.840;10.444;2023-04-03T03:10:26;7.80;99.90
26621;DHT22;14253;44.840;10.444;2023-04-03T03:12:52;7.70;99.90
26621;DHT22;14253;44.840;10.444;2023-04-03T03:15:18;7.60;99.90
26621;DHT22;14253;44.840;10.444;2023-04-03T03:17:45;7.60;99.90
26621;DHT22;14253;44.840;10.444;2023-04-03T03:20:11;7.70;99.90
26621;DHT22;14253;44.840;10.444;2023-04-03T03:22:39;7.60;99.90
26621;DHT22;14253;44.840;10.444;2023-04-03T03:25:06;7.60;99.90
26621;DHT22;14253;44.840;10.444;2023-04-03T03:27:32;7.60;99.90
26621;DHT22;14253;44.840;10.444;2023-04-03T03:29:58;7.70;99.90
26621;DHT22;14253;44.840;10.444;2023-04-03T03:32:24;7.60;99.90
26621;DHT22;14253;44.840;10.444;2023-04-03T03:34:50;7.60;99.90
26621;DHT22;14253;44.840;10.444;2023-04-03T03:37:16;7.70;99.90
26621;DHT22;14253;44.840;10.444;2023-04-03T03:39:42;7.70;99.90
26621;DHT22;14253;44.840;10.444;2023-04-03T03:42:08;7.60;99.90
26621;DHT22;14253;44.840;10.444;2023-04-03T03:44:34;7.70;99.90
26621;DHT22;14253;44.840;10.444;2023-04-03T03:47:00;7.50;99.90
26621;DHT22;14253;44.840;10.444;2023-04-03T03:49:28;7.40;99.90
26621;DHT22;14253;44.840;10.444;2023-04-03T03:51:54;7.40;99.90
26621;DHT22;14253;44.840;10.444;2023-04-03T03:54:21;7.50;99.90
26621;DHT22;14253;44.840;10.444;2023-04-03T03:56:47;7.40;99.90
26621;DHT22;14253;44.840;10.444;2023-04-03T03:59:13;7.30;99.90
26621;DHT22;14253;44.840;10.444;2023-04-03T04:01:40;7.40;99.90
26621;DHT22;14253;44.840;10.444;2023-04-03T04:04:07;7.40;99.90
26621;DHT22;14253;44.840;10.444;2023-04-03T04:06:33;7.40;99.90
26621;DHT22;14253;44.840;10.444;2023-04-03T04:09:03;7.40;99.90
26621;DHT22;14253;44.840;10.444;2023-04-03T04:11:29;7.40;99.90
26621;DHT22;14253;44.840;10.444;2023-04-03T04:13:56;7.40;99.90
26621;DHT22;14253;44.840;10.444;2023-04-03T04:16:25;7.40;99.90
26621;DHT22;14253;44.840;10.444;2023-04-03T04:18:52;7.40;99.90
26621;DHT22;14253;44.840;10.444;2023-04-03T04:21:19;7.40;99.90
26621;DHT22;14253;44.840;10.444;2023-04-03T04:23:46;7.40;99.90
26621;DHT22;14253;44.840;10.444;2023-04-03T04:26:13;7.50;99.90
26621;DHT22;14253;44.840;10.444;2023-04-03T04:28:39;7.40;99.90
26621;DHT22;14253;44.840;10.444;2023-04-03T04:31:06;7.30;99.90
26621;DHT22;14253;44.840;10.444;2023-04-03T04:33:32;7.30;99.90
26621;DHT22;14253;44.840;10.444;2023-04-03T04:36:01;7.30;99.90
26621;DHT22;14253;44.840;10.444;2023-04-03T04:38:28;7.30;99.90
26621;DHT22;14253;44.840;10.444;2023-04-03T04:40:54;7.30;99.90
26621;DHT22;14253;44.840;10.444;2023-04-03T04:43:21;7.20;99.90
26621;DHT22;14253;44.840;10.444;2023-04-03T04:46:00;7.20;99.90
26621;DHT22;14253;44.840;10.444;2023-04-03T04:48:27;7.20;99.90
26621;DHT22;14253;44.840;10.444;2023-04-03T04:50:53;7.20;99.90
26621;DHT22;14253;44.840;10.444;2023-04-03T04:53:19;7.20;99.90
26621;DHT22;14253;44.840;10.444;2023-04-03T04:55:46;7.30;99.90
26621;DHT22;14253;44.840;10.444;2023-04-03T04:58:12;7.30;99.90
26621;DHT22;14253;44.840;10.444;2023-04-03T05:00:39;7.30;99.90
26621;DHT22;14253;44.840;10.444;2023-04-03T05:03:05;7.20;99.90
26621;DHT22;14253;44.840;10.444;2023-04-03T05:05:31;7.20;99.90
26621;DHT22;14253;44.840;10.444;2023-04-03T05:07:57;7.20;99.90
26621;DHT22;14253;44.840;10.444;2023-04-03T05:10:23;7.20;99.90
26621;DHT22;14253;44.840;10.444;2023-04-03T05:12:49;7.10;99.90
26621;DHT22;14253;44.840;10.444;2023-04-03T05:15:15;7.00;99.90
26621;DHT22;14253;44.840;10.444;2023-04-03T05:17:43;7.00;99.90
26621;DHT22;14253;44.840;10.444;2023-04-03T05:20:12;7.10;99.90
26621;DHT22;14253;44.840;10.444;2023-04-03T05:22:39;7.20;99.90
26621;DHT22;14253;44.840;10.444;2023-04-03T05:25:09;7.40;99.90
26621;DHT22;14253;44.840;10.444;2023-04-03T05:27:37;7.40;99.90
26621;DHT22;14253;44.840;10.444;2023-04-03T05:30:03;7.40;99.90
26621;DHT22;14253;44.840;10.444;2023-04-03T05:32:38;7.40;99.90
26621;DHT22;14253;44.840;10.444;2023-04-03T05:35:36;7.40;99.90
26621;DHT22;14253;44.840;10.444;2023-04-03T05:38:06;7.50;99.90
26621;DHT22;14253;44.840;10.444;2023-04-03T05:40:33;7.60;99.90
26621;DHT22;14253;44.840;10.444;2023-04-03T05:43:07;7.70;99.90
26621;DHT22;14253;44.840;10.444;2023-04-03T05:45:47;7.80;99.90
26621;DHT22;14253;44.840;10.444;2023-04-03T05:48:36;7.90;99.90
26621;DHT22;14253;44.840;10.444;2023-04-03T05:51:04;8.10;99.90
26621;DHT22;14253;44.840;10.444;2023-04-03T05:53:34;8.10;99.90
26621;DHT22;14253;44.840;10.444;2023-04-03T05:56:04;8.30;99.90
26621;DHT22;14253;44.840;10.444;2023-04-03T05:58:34;8.60;99.90
26621;DHT22;14253;44.840;10.444;2023-04-03T06:01:00;9.00;99.90
26621;DHT22;14253;44.840;10.444;2023-04-03T06:03:27;9.80;99.90
26621;DHT22;14253;44.840;10.444;2023-04-03T06:05:53;10.60;99.90
26621;DHT22;14253;44.840;10.444;2023-04-03T06:08:19;11.30;99.90
26621;DHT22;14253;44.840;10.444;2023-04-03T06:10:45;11.30;99.90
26621;DHT22;14253;44.840;10.444;2023-04-03T06:13:12;11.30;99.90
26621;DHT22;14253;44.840;10.444;2023-04-03T06:15:38;11.50;99.90
26621;DHT22;14253;44.840;10.444;2023-04-03T06:18:08;11.60;99.90
26621;DHT22;14253;44.840;10.444;2023-04-03T06:20:34;11.60;99.90
26621;DHT22;14253;44.840;10.444;2023-04-03T06:23:00;11.50;99.90
26621;DHT22;14253;44.840;10.444;2023-04-03T06:25:27;11.70;99.90
26621;DHT22;14253;44.840;10.444;2023-04-03T06:27:53;12.10;99.90
26621;DHT22;14253;44.840;10.444;2023-04-03T06:30:21;12.10;99.90
26621;DHT22;14253;44.840;10.444;2023-04-03T06:32:47;12.00;99.90
26621;DHT22;14253;44.840;10.444;2023-04-03T06:35:14;12.00;99.90
26621;DHT22;14253;44.840;10.444;2023-04-03T06:37:39;12.00;99.90
26621;DHT22;14253;44.840;10.444;2023-04-03T06:40:06;12.40;99.90
26621;DHT22;14253;44.840;10.444;2023-04-03T06:42:32;12.60;99.90
26621;DHT22;14253;44.840;10.444;2023-04-03T06:45:06;13.10;99.90
26621;DHT22;14253;44.840;10.444;2023-04-03T06:47:33;13.70;99.90
26621;DHT22;14253;44.840;10.444;2023-04-03T06:49:59;13.80;99.90
26621;DHT22;14253;44.840;10.444;2023-04-03T06:52:25;13.70;99.90
26621;DHT22;14253;44.840;10.444;2023-04-03T06:54:52;13.90;99.90
26621;DHT22;14253;44.840;10.444;2023-04-03T06:57:22;14.20;99.90
26621;DHT22;14253;44.840;10.444;2023-04-03T06:59:48;14.30;99.90
26621;DHT22;14253;44.840;10.444;2023-04-03T07:02:15;14.60;99.90
26621;DHT22;14253;44.840;10.444;2023-04-03T07:04:41;15.10;99.90
26621;DHT22;14253;44.840;10.444;2023-04-03T07:07:07;15.60;99.90
26621;DHT22;14253;44.840;10.444;2023-04-03T07:09:34;15.60;99.90
26621;DHT22;14253;44.840;10.444;2023-04-03T07:11:59;15.90;99.90
26621;DHT22;14253;44.840;10.444;2023-04-03T07:14:26;15.90;99.90
26621;DHT22;14253;44.840;10.444;2023-04-03T07:16:54;16.00;99.90
26621;DHT22;14253;44.840;10.444;2023-04-03T07:19:20;15.70;99.90
26621;DHT22;14253;44.840;10.444;2023-04-03T07:21:47;16.00;99.90
26621;DHT22;14253;44.840;10.444;2023-04-03T07:24:12;15.90;99.90
26621;DHT22;14253;44.840;10.444;2023-04-03T07:26:39;15.70;99.90
26621;DHT22;14253;44.840;10.444;2023-04-03T07:29:04;15.70;99.90
26621;DHT22;14253;44.840;10.444;2023-04-03T07:31:31;16.10;99.90
26621;DHT22;14253;44.840;10.444;2023-04-03T07:33:56;16.10;99.90
26621;DHT22;14253;44.840;10.444;2023-04-03T07:36:22;16.30;99.90
26621;DHT22;14253;44.840;10.444;2023-04-03T07:38:48;16.70;99.90
26621;DHT22;14253;44.840;10.444;2023-04-03T07:41:16;16.80;99.90
26621;DHT22;14253;44.840;10.444;2023-04-03T07:43:44;16.60;99.90
26621;DHT22;14253;44.840;10.444;2023-04-03T07:46:10;16.50;99.90
26621;DHT22;14253;44.840;10.444;2023-04-03T07:48:36;16.40;99.90
26621;DHT22;14253;44.840;10.444;2023-04-03T07:51:04;16.50;99.90
26621;DHT22;14253;44.840;10.444;2023-04-03T07:53:30;16.70;99.90
26621;DHT22;14253;44.840;10.444;2023-04-03T07:55:58;16.70;99.90
26621;DHT22;14253;44.840;10.444;2023-04-03T07:58:24;16.60;99.90
26621;DHT22;14253;44.840;10.444;2023-04-03T08:00:51;16.40;99.90
26621;DHT22;14253;44.840;10.444;2023-04-03T08:03:17;16.50;99.90
26621;DHT22;14253;44.840;10.444;2023-04-03T08:05:45;16.50;99.90
26621;DHT22;14253;44.840;10.444;2023-04-03T08:08:13;16.60;99.90
26621;DHT22;14253;44.840;10.444;2023-04-03T08:10:41;16.40;99.90
26621;DHT22;14253;44.840;10.444;2023-04-03T08:13:07;16.60;99.90
26621;DHT22;14253;44.840;10.444;2023-04-03T08:15:33;16.60;99.90
26621;DHT22;14253;44.840;10.444;2023-04-03T08:18:00;16.60;99.90
26621;DHT22;14253;44.840;10.444;2023-04-03T08:20:26;16.50;99.90
26621;DHT22;14253;44.840;10.444;2023-04-03T08:22:53;16.60;99.90
26621;DHT22;14253;44.840;10.444;2023-04-03T08:25:19;16.80;99.90
26621;DHT22;14253;44.840;10.444;2023-04-03T08:27:45;16.60;99.90
26621;DHT22;14253;44.840;10.444;2023-04-03T08:30:11;16.60;99.90
26621;DHT22;14253;44.840;10.444;2023-04-03T08:32:37;16.60;99.90
26621;DHT22;14253;44.840;10.444;2023-04-03T08:35:04;16.80;99.90
26621;DHT22;14253;44.840;10.444;2023-04-03T08:37:30;16.90;99.90
26621;DHT22;14253;44.840;10.444;2023-04-03T08:39:57;17.20;99.90
26621;DHT22;14253;44.840;10.444;2023-04-03T08:42:58;17.50;99.90
26621;DHT22;14253;44.840;10.444;2023-04-03T08:48:05;17.50;99.90
26621;DHT22;14253;44.840;10.444;2023-04-03T08:50:40;17.40;99.90
26621;DHT22;14253;44.840;10.444;2023-04-03T08:53:20;17.10;99.90
26621;DHT22;14253;44.840;10.444;2023-04-03T08:55:49;17.20;99.90
26621;DHT22;14253;44.840;10.444;2023-04-03T08:58:19;17.30;99.90
26621;DHT22;14253;44.840;10.444;2023-04-03T09:03:21;17.50;99.90
26621;DHT22;14253;44.840;10.444;2023-04-03T09:05:57;17.70;99.90
26621;DHT22;14253;44.840;10.444;2023-04-03T09:08:34;17.90;99.90
26621;DHT22;14253;44.840;10.444;2023-04-03T09:14:22;18.00;99.90
26621;DHT22;14253;44.840;10.444;2023-04-03T09:16:56;18.20;99.90
26621;DHT22;14253;44.840;10.444;2023-04-03T09:22:13;17.50;99.90
26621;DHT22;14253;44.840;10.444;2023-04-03T09:24:42;17.10;99.90
26621;DHT22;14253;44.840;10.444;2023-04-03T09:27:10;17.00;99.90
26621;DHT22;14253;44.840;10.444;2023-04-03T09:29:40;16.60;99.90
26621;DHT22;14253;44.840;10.444;2023-04-03T09:32:27;16.50;99.90
26621;DHT22;14253;44.840;10.444;2023-04-03T09:34:57;16.80;99.90
26621;DHT22;14253;44.840;10.444;2023-04-03T09:37:45;16.70;99.90
26621;DHT22;14253;44.840;10.444;2023-04-03T09:40:32;17.10;99.90
26621;DHT22;14253;44.840;10.444;2023-04-03T09:43:08;17.70;99.90
26621;DHT22;14253;44.840;10.444;2023-04-03T09:45:45;17.70;99.90
26621;DHT22;14253;44.840;10.444;2023-04-03T09:53:39;17.70;99.90
26621;DHT22;14253;44.840;10.444;2023-04-03T10:01:29;16.90;99.90
26621;DHT22;14253;44.840;10.444;2023-04-03T10:06:47;17.10;99.90
26621;DHT22;14253;44.840;10.444;2023-04-03T10:12:11;17.90;99.90
26621;DHT22;14253;44.840;10.444;2023-04-03T10:15:11;18.10;99.90
26621;DHT22;14253;44.840;10.444;2023-04-03T10:20:37;17.50;99.90
26621;DHT22;14253;44.840;10.444;2023-04-03T10:23:17;17.40;99.90
26621;DHT22;14253;44.840;10.444;2023-04-03T10:26:17;17.20;99.90
26621;DHT22;14253;44.840;10.444;2023-04-03T10:34:05;16.20;99.90
26621;DHT22;14253;44.840;10.444;2023-04-03T10:36:46;16.30;99.90
26621;DHT22;14253;44.840;10.444;2023-04-03T10:39:34;16.60;99.90
26621;DHT22;14253;44.840;10.444;2023-04-03T10:55:34;17.90;99.90
26621;DHT22;14253;44.840;10.444;2023-04-03T10:58:02;18.60;99.90
26621;DHT22;14253;44.840;10.444;2023-04-03T11:00:43;18.50;99.90
26621;DHT22;14253;44.840;10.444;2023-04-03T11:03:57;18.20;99.90
26621;DHT22;14253;44.840;10.444;2023-04-03T11:06:10;18.10;99.90
26621;DHT22;14253;44.840;10.444;2023-04-03T11:09:01;18.10;99.90
26621;DHT22;14253;44.840;10.444;2023-04-03T11:11:35;18.00;99.90
26621;DHT22;14253;44.840;10.444;2023-04-03T11:14:28;18.10;99.90
26621;DHT22;14253;44.840;10.444;2023-04-03T11:17:43;18.10;99.90
26621;DHT22;14253;44.840;10.444;2023-04-03T11:22:42;18.00;99.90
26621;DHT22;14253;44.840;10.444;2023-04-03T11:27:48;18.10;99.90
26621;DHT22;14253;44.840;10.444;2023-04-03T11:30:25;18.10;99.90
26621;DHT22;14253;44.840;10.444;2023-04-03T11:35:33;18.40;99.90
26621;DHT22;14253;44.840;10.444;2023-04-03T11:38:01;18.30;99.90
26621;DHT22;14253;44.840;10.444;2023-04-03T11:40:33;18.60;99.90
26621;DHT22;14253;44.840;10.444;2023-04-03T11:45:35;18.60;99.90
26621;DHT22;14253;44.840;10.444;2023-04-03T11:50:45;18.50;99.90
26621;DHT22;14253;44.840;10.444;2023-04-03T11:58:19;18.20;99.90
26621;DHT22;14253;44.840;10.444;2023-04-03T12:05:56;18.20;99.90
26621;DHT22;14253;44.840;10.444;2023-04-03T12:14:03;18.10;99.90
26621;DHT22;14253;44.840;10.444;2023-04-03T12:38:15;18.10;99.90
26621;DHT22;14253;44.840;10.444;2023-04-03T12:48:53;18.70;99.90
26621;DHT22;14253;44.840;10.444;2023-04-03T12:51:40;18.70;99.90
26621;DHT22;14253;44.840;10.444;2023-04-03T12:54:16;18.80;99.90
26621;DHT22;14253;44.840;10.444;2023-04-03T12:56:43;18.90;99.90
26621;DHT22;14253;44.840;10.444;2023-04-03T12:59:26;18.90;99.90
26621;DHT22;14253;44.840;10.444;2023-04-03T13:01:57;19.10;99.90
26621;DHT22;14253;44.840;10.444;2023-04-03T13:04:24;19.20;99.90
26621;DHT22;14253;44.840;10.444;2023-04-03T13:06:51;19.00;99.90
26621;DHT22;14253;44.840;10.444;2023-04-03T13:09:24;18.70;99.90
26621;DHT22;14253;44.840;10.444;2023-04-03T13:11:57;18.80;99.90
26621;DHT22;14253;44.840;10.444;2023-04-03T13:14:25;19.00;99.90
26621;DHT22;14253;44.840;10.444;2023-04-03T13:17:04;19.10;99.90
26621;DHT22;14253;44.840;10.444;2023-04-03T13:19:30;19.20;99.90
26621;DHT22;14253;44.840;10.444;2023-04-03T13:22:04;18.80;99.90
26621;DHT22;14253;44.840;10.444;2023-04-03T13:24:33;18.10;99.90
26621;DHT22;14253;44.840;10.444;2023-04-03T13:27:01;17.70;99.90
26621;DHT22;14253;44.840;10.444;2023-04-03T13:29:31;17.60;99.90
26621;DHT22;14253;44.840;10.444;2023-04-03T13:31:59;17.70;99.90
26621;DHT22;14253;44.840;10.444;2023-04-03T13:34:38;17.50;99.90
26621;DHT22;14253;44.840;10.444;2023-04-03T13:37:04;17.40;99.90
26621;DHT22;14253;44.840;10.444;2023-04-03T13:39:36;17.00;99.90
26621;DHT22;14253;44.840;10.444;2023-04-03T13:42:20;17.00;99.90
26621;DHT22;14253;44.840;10.444;2023-04-03T13:44:47;17.30;99.90
26621;DHT22;14253;44.840;10.444;2023-04-03T13:47:18;17.70;99.90
26621;DHT22;14253;44.840;10.444;2023-04-03T13:49:58;18.10;99.90
26621;DHT22;14253;44.840;10.444;2023-04-03T13:52:28;18.20;99.90
26621;DHT22;14253;44.840;10.444;2023-04-03T13:54:59;18.30;99.90
26621;DHT22;14253;44.840;10.444;2023-04-03T13:57:25;17.90;99.90
26621;DHT22;14253;44.840;10.444;2023-04-03T13:59:52;17.50;99.90
26621;DHT22;14253;44.840;10.444;2023-04-03T14:02:29;17.20;99.90
26621;DHT22;14253;44.840;10.444;2023-04-03T14:04:58;16.90;99.90
26621;DHT22;14253;44.840;10.444;2023-04-03T14:07:28;16.90;99.90
26621;DHT22;14253;44.840;10.444;2023-04-03T14:09:55;16.90;99.90
26621;DHT22;14253;44.840;10.444;2023-04-03T14:12:36;16.80;99.90
26621;DHT22;14253;44.840;10.444;2023-04-03T14:15:04;17.00;99.90
26621;DHT22;14253;44.840;10.444;2023-04-03T14:17:32;17.30;99.90
26621;DHT22;14253;44.840;10.444;2023-04-03T14:19:59;17.10;99.90
26621;DHT22;14253;44.840;10.444;2023-04-03T14:22:31;16.90;99.90
26621;DHT22;14253;44.840;10.444;2023-04-03T14:24:58;16.60;99.90
26621;DHT22;14253;44.840;10.444;2023-04-03T14:27:34;16.50;99.90
26621;DHT22;14253;44.840;10.444;2023-04-03T14:30:04;16.80;99.90
26621;DHT22;14253;44.840;10.444;2023-04-03T14:32:31;17.10;99.90
26621;DHT22;14253;44.840;10.444;2023-04-03T14:34:57;17.20;99.90
26621;DHT22;14253;44.840;10.444;2023-04-03T14:37:26;17.20;99.90
26621;DHT22;14253;44.840;10.444;2023-04-03T14:39:56;17.30;99.90
26621;DHT22;14253;44.840;10.444;2023-04-03T14:42:28;17.20;99.90
26621;DHT22;14253;44.840;10.444;2023-04-03T14:44:55;17.20;99.90
26621;DHT22;14253;44.840;10.444;2023-04-03T14:47:24;16.90;99.90
26621;DHT22;14253;44.840;10.444;2023-04-03T14:49:50;16.70;99.90
26621;DHT22;14253;44.840;10.444;2023-04-03T14:52:24;16.80;99.90
26621;DHT22;14253;44.840;10.444;2023-04-03T14:54:51;16.90;99.90
26621;DHT22;14253;44.840;10.444;2023-04-03T14:57:17;17.10;99.90
26621;DHT22;14253;44.840;10.444;2023-04-03T14:59:45;17.30;99.90
26621;DHT22;14253;44.840;10.444;2023-04-03T15:02:34;17.40;99.90
26621;DHT22;14253;44.840;10.444;2023-04-03T15:05:02;17.60;99.90
26621;DHT22;14253;44.840;10.444;2023-04-03T15:07:41;17.70;99.90
26621;DHT22;14253;44.840;10.444;2023-04-03T15:12:43;18.10;99.90
26621;DHT22;14253;44.840;10.444;2023-04-03T15:15:09;18.30;99.90
26621;DHT22;14253;44.840;10.444;2023-04-03T15:17:36;18.60;99.90
26621;DHT22;14253;44.840;10.444;2023-04-03T15:20:05;18.70;99.90
26621;DHT22;14253;44.840;10.444;2023-04-03T15:22:36;18.90;99.90
26621;DHT22;14253;44.840;10.444;2023-04-03T15:25:02;18.90;99.90
26621;DHT22;14253;44.840;10.444;2023-04-03T15:27:28;18.90;99.90
26621;DHT22;14253;44.840;10.444;2023-04-03T15:29:54;19.10;99.90
26621;DHT22;14253;44.840;10.444;2023-04-03T15:32:20;19.20;99.90
26621;DHT22;14253;44.840;10.444;2023-04-03T15:34:46;19.30;99.90
26621;DHT22;14253;44.840;10.444;2023-04-03T15:37:12;19.60;99.90
26621;DHT22;14253;44.840;10.444;2023-04-03T15:39:38;19.50;99.90
26621;DHT22;14253;44.840;10.444;2023-04-03T15:42:04;19.80;99.90
26621;DHT22;14253;44.840;10.444;2023-04-03T15:44:33;19.70;99.90
26621;DHT22;14253;44.840;10.444;2023-04-03T15:47:00;19.60;99.90
26621;DHT22;14253;44.840;10.444;2023-04-03T15:49:26;19.60;99.90
26621;DHT22;14253;44.840;10.444;2023-04-03T15:51:52;19.70;99.90
26621;DHT22;14253;44.840;10.444;2023-04-03T15:54:20;19.60;99.90
26621;DHT22;14253;44.840;10.444;2023-04-03T15:56:46;19.60;99.90
26621;DHT22;14253;44.840;10.444;2023-04-03T15:59:12;19.80;99.90
26621;DHT22;14253;44.840;10.444;2023-04-03T16:01:38;19.70;99.90
26621;DHT22;14253;44.840;10.444;2023-04-03T16:04:07;19.50;99.90
26621;DHT22;14253;44.840;10.444;2023-04-03T16:06:33;19.30;99.90
26621;DHT22;14253;44.840;10.444;2023-04-03T16:09:00;19.50;99.90
26621;DHT22;14253;44.840;10.444;2023-04-03T16:11:26;19.40;99.90
26621;DHT22;14253;44.840;10.444;2023-04-03T16:13:54;19.10;99.90
26621;DHT22;14253;44.840;10.444;2023-04-03T16:16:20;18.90;99.90
26621;DHT22;14253;44.840;10.444;2023-04-03T16:18:47;18.80;99.90
26621;DHT22;14253;44.840;10.444;2023-04-03T16:21:14;18.70;99.90
26621;DHT22;14253;44.840;10.444;2023-04-03T16:23:41;18.90;99.90
26621;DHT22;14253;44.840;10.444;2023-04-03T16:26:07;19.00;99.90
26621;DHT22;14253;44.840;10.444;2023-04-03T16:28:33;18.70;99.90
26621;DHT22;14253;44.840;10.444;2023-04-03T16:31:00;18.40;99.90
26621;DHT22;14253;44.840;10.444;2023-04-03T16:33:27;18.00;99.90
26621;DHT22;14253;44.840;10.444;2023-04-03T16:35:53;17.30;99.90
26621;DHT22;14253;44.840;10.444;2023-04-03T16:38:19;16.80;99.90
26621;DHT22;14253;44.840;10.444;2023-04-03T16:40:45;16.20;99.90
26621;DHT22;14253;44.840;10.444;2023-04-03T16:43:11;15.90;99.90
26621;DHT22;14253;44.840;10.444;2023-04-03T16:45:37;15.70;99.90
26621;DHT22;14253;44.840;10.444;2023-04-03T16:48:03;15.50;99.90
26621;DHT22;14253;44.840;10.444;2023-04-03T16:50:29;15.30;99.90
26621;DHT22;14253;44.840;10.444;2023-04-03T16:52:55;15.10;99.90
26621;DHT22;14253;44.840;10.444;2023-04-03T16:55:21;15.00;99.90
26621;DHT22;14253;44.840;10.444;2023-04-03T16:57:47;14.80;99.90
26621;DHT22;14253;44.840;10.444;2023-04-03T17:00:13;14.60;99.90
26621;DHT22;14253;44.840;10.444;2023-04-03T17:02:40;14.50;99.90
26621;DHT22;14253;44.840;10.444;2023-04-03T17:05:06;14.40;99.90
26621;DHT22;14253;44.840;10.444;2023-04-03T17:07:33;14.40;99.90
26621;DHT22;14253;44.840;10.444;2023-04-03T17:09:58;14.30;99.90
26621;DHT22;14253;44.840;10.444;2023-04-03T17:12:25;14.10;99.90
26621;DHT22;14253;44.840;10.444;2023-04-03T17:14:51;14.00;99.90
26621;DHT22;14253;44.840;10.444;2023-04-03T17:17:22;13.90;99.90
26621;DHT22;14253;44.840;10.444;2023-04-03T17:19:49;13.70;99.90
26621;DHT22;14253;44.840;10.444;2023-04-03T17:22:15;13.60;99.90
26621;DHT22;14253;44.840;10.444;2023-04-03T17:24:43;13.50;99.90
26621;DHT22;14253;44.840;10.444;2023-04-03T17:27:09;13.40;99.90
26621;DHT22;14253;44.840;10.444;2023-04-03T17:29:35;13.20;99.90
26621;DHT22;14253;44.840;10.444;2023-04-03T17:32:01;13.10;99.90